createdAt,value
2023-03-26T00:00:38.194Z,83.81
2023-03-26T00:03:30.127Z,83.62
2023-03-26T00:06:07.679Z,83.52
2023-03-26T00:08:38.571Z,83.31
2023-03-26T00:11:11.864Z,83.45
2023-03-26T00:13:44.136Z,83.38
2023-03-26T00:16:16.867Z,83.36
2023-03-26T00:18:49.084Z,83.36
2023-03-26T00:21:26.330Z,83.39
2023-03-26T00:23:59.838Z,83.46
2023-03-26T00:26:31.450Z,83.71
2023-03-26T00:29:04.045Z,83.72
2023-03-26T00:31:35.887Z,83.75
2023-03-26T00:34:07.405Z,83.68
2023-03-26T00:36:38.500Z,83.64
2023-03-26T00:39:10.161Z,83.54
2023-03-26T00:41:43.376Z,83.57
2023-03-26T00:44:14.464Z,83.52
2023-03-26T00:46:45.562Z,83.48
2023-03-26T00:49:16.755Z,83.36
2023-03-26T00:51:47.766Z,83.41
2023-03-26T00:54:19.031Z,83.46
2023-03-26T00:56:50.144Z,83.22
2023-03-26T00:59:22.560Z,83.27
2023-03-26T01:01:55.162Z,83.30
2023-03-26T01:04:31.967Z,83.37
2023-03-26T01:07:06.039Z,83.51
2023-03-26T01:09:43.062Z,83.57
2023-03-26T01:12:18.753Z,83.25
2023-03-26T01:14:52.101Z,83.20
2023-03-26T01:17:25.071Z,83.27
2023-03-26T01:20:12.830Z,83.22
2023-03-26T01:22:47.505Z,83.19
2023-03-26T01:25:19.030Z,83.11
2023-03-26T01:27:53.372Z,83.03
2023-03-26T01:30:33.629Z,82.83
2023-03-26T01:33:14.064Z,82.72
2023-03-26T01:35:54.058Z,82.30
2023-03-26T01:38:35.636Z,82.05
2023-03-26T01:41:13.138Z,81.84
2023-03-26T01:43:51.367Z,81.56
2023-03-26T01:46:25.837Z,81.63
2023-03-26T01:48:57.070Z,81.42
2023-03-26T01:51:29.071Z,81.16
2023-03-26T01:54:02.168Z,80.99
2023-03-26T01:56:44.306Z,80.98
2023-03-26T01:59:30.045Z,80.86
2023-03-26T02:02:09.080Z,80.84
2023-03-26T02:04:53.342Z,80.72
2023-03-26T02:07:29.375Z,80.60
2023-03-26T02:10:05.594Z,80.44
2023-03-26T02:12:38.678Z,80.38
2023-03-26T02:15:12.673Z,80.26
2023-03-26T02:17:43.668Z,80.30
2023-03-26T02:20:16.036Z,80.10
2023-03-26T02:22:48.013Z,79.79
2023-03-26T02:25:21.671Z,79.53
2023-03-26T02:27:54.371Z,79.54
2023-03-26T02:30:29.756Z,79.45
2023-03-26T02:33:04.178Z,79.25
2023-03-26T02:35:38.081Z,79.21
2023-03-26T02:38:10.597Z,79.06
2023-03-26T02:40:41.718Z,78.93
2023-03-26T02:43:12.755Z,78.78
2023-03-26T02:45:43.922Z,78.57
2023-03-26T02:48:13.411Z,78.63
2023-03-26T02:50:44.900Z,78.36
2023-03-26T02:53:16.120Z,78.46
2023-03-26T02:55:47.959Z,78.27
2023-03-26T02:58:20.165Z,78.17
2023-03-26T03:00:55.081Z,77.91
2023-03-26T03:03:27.233Z,77.55
2023-03-26T03:05:59.013Z,77.28
2023-03-26T03:08:30.505Z,77.47
2023-03-26T03:11:03.417Z,77.47
2023-03-26T03:13:34.577Z,77.38
2023-03-26T03:16:06.964Z,77.32
2023-03-26T03:18:38.314Z,77.31
2023-03-26T03:21:09.709Z,77.39
2023-03-26T03:23:41.233Z,77.78
2023-03-26T03:26:14.409Z,78.36
2023-03-26T03:28:46.680Z,78.63
2023-03-26T03:31:19.082Z,78.88
2023-03-26T03:33:51.188Z,79.14
2023-03-26T03:36:23.887Z,79.45
2023-03-26T03:38:55.194Z,79.54
2023-03-26T03:41:26.480Z,79.82
2023-03-26T03:43:59.939Z,79.89
2023-03-26T03:46:31.137Z,80.03
2023-03-26T03:49:02.398Z,80.24
2023-03-26T03:51:33.608Z,80.25
2023-03-26T03:54:03.501Z,80.19
2023-03-26T03:56:36.172Z,80.49
2023-03-26T03:59:09.050Z,80.70
2023-03-26T04:01:43.418Z,80.96
2023-03-26T04:04:14.586Z,81.26
2023-03-26T04:06:45.711Z,81.54
2023-03-26T04:09:15.101Z,81.97
2023-03-26T04:11:46.188Z,82.36
2023-03-26T04:14:17.187Z,82.60
2023-03-26T04:16:49.492Z,82.88
2023-03-26T04:19:20.606Z,83.04
2023-03-26T04:21:52.014Z,83.18
2023-03-26T04:24:24.604Z,83.12
2023-03-26T04:26:58.248Z,83.40
2023-03-26T04:29:32.870Z,83.47
2023-03-26T04:32:06.768Z,83.55
2023-03-26T04:34:38.053Z,83.57
2023-03-26T04:37:10.707Z,83.58
2023-03-26T04:39:41.838Z,83.43
2023-03-26T04:42:14.393Z,83.43
2023-03-26T04:44:45.411Z,83.37
2023-03-26T04:47:15.064Z,83.54
2023-03-26T04:49:44.953Z,83.64
2023-03-26T04:52:16.630Z,83.75
2023-03-26T04:54:48.131Z,83.83
2023-03-26T04:57:24.217Z,83.68
2023-03-26T04:59:55.413Z,83.65
2023-03-26T05:02:25.075Z,83.80
2023-03-26T05:04:57.306Z,84.05
2023-03-26T05:07:28.549Z,84.31
2023-03-26T05:09:58.409Z,84.60
2023-03-26T05:12:29.746Z,85.07
2023-03-26T05:15:00.877Z,85.29
2023-03-26T05:17:34.878Z,85.61
2023-03-26T05:20:06.981Z,85.78
2023-03-26T05:22:38.852Z,85.73
2023-03-26T05:25:11.665Z,85.93
2023-03-26T05:27:42.786Z,85.72
2023-03-26T05:30:17.188Z,85.70
2023-03-26T05:32:50.051Z,85.58
2023-03-26T05:35:21.782Z,85.63
2023-03-26T05:37:53.008Z,85.60
2023-03-26T05:40:23.043Z,85.59
2023-03-26T05:42:54.080Z,85.53
2023-03-26T05:45:23.628Z,85.58
2023-03-26T05:47:55.951Z,85.59
2023-03-26T05:50:27.268Z,85.48
2023-03-26T05:52:56.547Z,85.41
2023-03-26T05:55:27.864Z,85.31
2023-03-26T05:57:59.103Z,85.33
2023-03-26T06:00:30.532Z,85.23
2023-03-26T06:03:01.961Z,85.34
2023-03-26T06:05:37.369Z,85.29
2023-03-26T06:08:08.734Z,85.53
2023-03-26T06:10:41.814Z,85.63
2023-03-26T06:13:13.744Z,85.66
2023-03-26T06:15:45.624Z,85.76
2023-03-26T06:18:16.663Z,85.68
2023-03-26T06:20:47.777Z,85.74
2023-03-26T06:23:17.309Z,85.66
2023-03-26T06:25:48.672Z,85.42
2023-03-26T06:28:19.993Z,85.18
2023-03-26T06:30:51.602Z,85.04
2023-03-26T06:33:24.608Z,84.88
2023-03-26T06:35:56.455Z,84.68
2023-03-26T06:38:28.224Z,84.56
2023-03-26T06:41:05.586Z,84.66
2023-03-26T06:43:36.323Z,84.84
2023-03-26T06:46:07.827Z,84.90
2023-03-26T06:48:39.158Z,85.01
2023-03-26T06:51:10.799Z,84.61
2023-03-26T06:53:41.951Z,84.65
2023-03-26T06:56:13.407Z,84.56
2023-03-26T06:58:44.507Z,84.48
2023-03-26T07:01:13.853Z,84.10
2023-03-26T07:03:44.997Z,84.03
2023-03-26T07:06:16.194Z,83.56
2023-03-26T07:08:47.481Z,82.79
2023-03-26T07:11:20.919Z,83.01
2023-03-26T07:13:52.195Z,83.18
2023-03-26T07:16:23.845Z,82.18
2023-03-26T07:18:55.683Z,81.97
2023-03-26T07:21:27.929Z,81.84
2023-03-26T07:24:01.601Z,82.27
2023-03-26T07:26:40.030Z,82.08
2023-03-26T07:29:16.727Z,82.10
2023-03-26T07:31:53.901Z,81.35
2023-03-26T07:34:47.362Z,80.97
2023-03-26T07:37:31.466Z,81.41
2023-03-26T07:40:09.454Z,82.12
2023-03-26T07:42:59.468Z,82.36
2023-03-26T07:45:38.096Z,81.61
2023-03-26T07:48:18.428Z,81.43
2023-03-26T07:50:51.223Z,81.04
2023-03-26T07:53:23.925Z,81.17
2023-03-26T07:55:59.435Z,80.91
2023-03-26T07:58:45.985Z,81.45
2023-03-26T08:01:25.973Z,81.56
2023-03-26T08:04:23.887Z,81.48
2023-03-26T08:07:01.220Z,81.12
2023-03-26T08:09:43.029Z,80.93
2023-03-26T08:12:24.103Z,80.70
2023-03-26T08:15:05.497Z,81.06
2023-03-26T08:17:40.770Z,79.46
2023-03-26T08:20:25.281Z,77.93
2023-03-26T08:23:03.625Z,77.83
2023-03-26T08:25:42.372Z,77.80
2023-03-26T08:28:25.257Z,77.41
2023-03-26T08:30:58.177Z,77.77
2023-03-26T08:33:32.427Z,77.18
2023-03-26T08:36:03.803Z,77.01
2023-03-26T08:38:35.061Z,76.63
2023-03-26T08:41:41.306Z,76.17
2023-03-26T08:44:59.448Z,75.35
2023-03-26T08:48:07.058Z,74.52
2023-03-26T08:51:03.427Z,74.41
2023-03-26T08:54:00.588Z,75.13
2023-03-26T08:56:40.917Z,74.89
2023-03-26T08:59:50.918Z,75.20
2023-03-26T09:02:41.072Z,76.37
2023-03-26T09:05:38.839Z,76.68
2023-03-26T09:08:53.795Z,76.67
2023-03-26T09:11:43.501Z,77.26
2023-03-26T09:14:46.927Z,77.45
2023-03-26T09:17:57.880Z,77.20
2023-03-26T09:21:01.449Z,77.71
2023-03-26T09:23:54.515Z,77.37
2023-03-26T09:26:40.489Z,77.92
2023-03-26T09:30:00.841Z,77.66
2023-03-26T09:32:57.207Z,78.64
2023-03-26T09:35:52.140Z,77.73
2023-03-26T09:38:43.781Z,77.55
2023-03-26T09:41:32.038Z,77.96
2023-03-26T09:44:44.829Z,77.99
2023-03-26T09:47:56.446Z,77.23
2023-03-26T09:50:36.692Z,76.41
2023-03-26T09:53:22.529Z,76.97
2023-03-26T09:56:09.779Z,74.79
2023-03-26T09:59:10.259Z,73.74
2023-03-26T10:01:49.101Z,73.56
2023-03-26T10:04:44.137Z,73.30
2023-03-26T10:07:36.339Z,73.64
2023-03-26T10:10:19.067Z,72.58
2023-03-26T10:13:04.876Z,71.09
2023-03-26T10:15:58.640Z,68.91
2023-03-26T10:18:38.875Z,69.26
2023-03-26T10:21:19.151Z,69.56
2023-03-26T10:24:02.830Z,70.40
2023-03-26T10:27:08.319Z,69.17
2023-03-26T10:30:03.108Z,68.77
2023-03-26T10:32:45.649Z,69.01
2023-03-26T10:35:27.631Z,67.93
2023-03-26T10:38:10.491Z,67.49
2023-03-26T10:40:48.973Z,66.78
2023-03-26T10:43:38.466Z,66.11
2023-03-26T10:46:39.686Z,66.30
2023-03-26T10:49:34.637Z,67.47
2023-03-26T10:52:07.839Z,68.18
2023-03-26T10:54:54.915Z,68.24
2023-03-26T10:57:42.487Z,68.34
2023-03-26T11:00:25.468Z,65.86
2023-03-26T11:03:18.398Z,64.62
2023-03-26T11:05:58.623Z,65.41
2023-03-26T11:08:38.282Z,66.48
2023-03-26T11:11:20.366Z,66.50
2023-03-26T11:14:00.721Z,65.15
2023-03-26T11:16:43.549Z,64.06
2023-03-26T11:19:23.180Z,62.91
2023-03-26T11:22:01.581Z,63.74
2023-03-26T11:25:05.729Z,63.43
2023-03-26T11:27:49.758Z,62.57
2023-03-26T11:30:30.628Z,62.94
2023-03-26T11:33:04.139Z,63.86
2023-03-26T11:35:41.733Z,63.93
2023-03-26T11:38:21.310Z,64.28
2023-03-26T11:40:57.051Z,65.11
2023-03-26T11:43:33.716Z,65.86
2023-03-26T11:46:09.645Z,66.22
2023-03-26T11:48:44.850Z,67.09
2023-03-26T11:51:21.573Z,67.57
2023-03-26T11:53:52.702Z,67.46
2023-03-26T11:56:31.223Z,66.49
2023-03-26T11:59:05.875Z,66.58
2023-03-26T12:01:50.811Z,66.69
2023-03-26T12:04:29.408Z,65.42
2023-03-26T12:07:14.101Z,65.21
2023-03-26T12:09:54.136Z,64.80
2023-03-26T12:12:27.918Z,63.74
2023-03-26T12:14:59.416Z,63.71
2023-03-26T12:17:35.221Z,63.78
2023-03-26T12:20:32.325Z,63.30
2023-03-26T12:23:05.452Z,62.55
2023-03-26T12:25:39.129Z,61.30
2023-03-26T12:28:19.914Z,61.91
2023-03-26T12:31:02.407Z,62.48
2023-03-26T12:33:35.856Z,62.43
2023-03-26T12:36:23.312Z,61.86
2023-03-26T12:40:05.983Z,62.40
2023-03-26T12:44:44.672Z,62.46
2023-03-26T12:44:58.956Z,61.14
2023-03-26T12:47:57.722Z,60.39
2023-03-26T12:50:34.637Z,59.93
2023-03-26T12:53:20.533Z,58.66
2023-03-26T12:56:01.444Z,58.05
2023-03-26T12:58:55.259Z,59.09
2023-03-26T13:01:37.406Z,57.00
2023-03-26T13:04:34.427Z,56.96
2023-03-26T13:07:18.046Z,55.66
2023-03-26T13:10:03.298Z,55.84
2023-03-26T13:12:44.058Z,56.18
2023-03-26T13:15:26.753Z,56.32
2023-03-26T13:18:08.755Z,56.43
2023-03-26T13:20:56.179Z,56.13
2023-03-26T13:23:38.630Z,55.95
2023-03-26T13:26:22.161Z,56.32
2023-03-26T13:29:04.952Z,56.14
2023-03-26T13:31:43.318Z,56.55
2023-03-26T13:34:26.462Z,57.49
2023-03-26T13:37:12.801Z,57.23
2023-03-26T13:39:57.971Z,57.14
2023-03-26T13:42:47.231Z,56.52
2023-03-26T13:45:34.898Z,57.21
2023-03-26T13:48:11.346Z,56.58
2023-03-26T13:50:46.053Z,56.48
2023-03-26T13:53:22.428Z,56.70
2023-03-26T13:55:54.450Z,57.35
2023-03-26T13:58:34.761Z,57.38
2023-03-26T14:01:10.986Z,58.50
2023-03-26T14:03:53.597Z,58.56
2023-03-26T14:06:42.575Z,59.10
2023-03-26T14:09:19.995Z,59.92
2023-03-26T14:11:59.380Z,61.11
2023-03-26T14:14:42.856Z,62.77
2023-03-26T14:17:20.520Z,63.55
2023-03-26T14:20:23.909Z,64.60
2023-03-26T14:23:07.617Z,65.63
2023-03-26T14:25:57.154Z,66.64
2023-03-26T14:28:58.188Z,67.22
2023-03-26T14:31:34.936Z,67.78
2023-03-26T14:34:22.342Z,68.14
2023-03-26T14:37:17.872Z,69.72
2023-03-26T14:40:15.022Z,70.88
2023-03-26T14:42:56.475Z,71.22
2023-03-26T14:46:00.364Z,71.61
2023-03-26T14:49:06.981Z,71.45
2023-03-26T14:52:10.207Z,71.56
2023-03-26T14:54:45.857Z,72.56
2023-03-26T14:57:34.152Z,72.93
2023-03-26T15:00:43.876Z,73.63
2023-03-26T15:03:41.770Z,73.87
2023-03-26T15:06:52.407Z,73.53
2023-03-26T15:09:50.518Z,73.03
2023-03-26T15:12:36.003Z,74.12
2023-03-26T15:15:39.964Z,74.89
2023-03-26T15:18:41.288Z,75.55
2023-03-26T15:21:43.485Z,75.90
2023-03-26T15:24:47.078Z,76.36
2023-03-26T15:27:52.597Z,76.74
2023-03-26T15:30:59.995Z,77.10
2023-03-26T15:34:14.717Z,77.28
2023-03-26T15:37:28.915Z,77.98
2023-03-26T15:40:27.204Z,77.99
2023-03-26T15:43:07.583Z,78.30
2023-03-26T15:45:42.131Z,78.52
2023-03-26T15:48:35.605Z,78.73
2023-03-26T15:51:29.363Z,78.90
2023-03-26T15:54:07.475Z,79.05
2023-03-26T15:56:54.261Z,79.01
2023-03-26T15:59:36.992Z,78.37
2023-03-26T16:02:22.790Z,78.32
2023-03-26T16:04:57.621Z,78.19
2023-03-26T16:07:42.366Z,78.42
2023-03-26T16:10:34.977Z,78.94
2023-03-26T16:13:35.041Z,79.15
2023-03-26T16:16:46.574Z,79.44
2023-03-26T16:19:41.147Z,79.60
2023-03-26T16:22:16.962Z,79.84
2023-03-26T16:25:26.378Z,80.13
2023-03-26T16:28:32.548Z,80.49
2023-03-26T16:31:38.643Z,80.54
2023-03-26T16:34:28.646Z,80.62
2023-03-26T16:37:01.741Z,80.84
2023-03-26T16:39:44.855Z,80.84
2023-03-26T16:42:34.225Z,80.91
2023-03-26T16:45:21.085Z,80.95
2023-03-26T16:48:02.089Z,81.09
2023-03-26T16:50:45.039Z,81.13
2023-03-26T16:53:33.485Z,81.04
2023-03-26T16:56:14.467Z,80.80
2023-03-26T16:58:55.251Z,80.75
2023-03-26T17:01:36.429Z,80.85
2023-03-26T17:04:11.753Z,80.79
2023-03-26T17:07:04.548Z,80.84
2023-03-26T17:09:46.716Z,80.86
2023-03-26T17:12:26.028Z,80.69
2023-03-26T17:15:08.467Z,80.98
2023-03-26T17:17:53.215Z,81.04
2023-03-26T17:20:35.856Z,81.08
2023-03-26T17:23:23.833Z,81.01
2023-03-26T17:26:10.298Z,81.08
2023-03-26T17:29:01.678Z,81.21
2023-03-26T17:31:41.484Z,81.31
2023-03-26T17:34:46.894Z,81.38
2023-03-26T17:37:41.122Z,81.46
2023-03-26T17:40:49.002Z,81.51
2023-03-26T17:43:56.237Z,81.60
2023-03-26T17:46:35.524Z,81.76
2023-03-26T17:49:15.992Z,81.92
2023-03-26T17:51:52.604Z,82.09
2023-03-26T17:54:27.250Z,82.07
2023-03-26T17:57:01.936Z,82.15
2023-03-26T17:59:36.349Z,82.20
2023-03-26T18:02:16.589Z,82.26
2023-03-26T18:04:51.183Z,82.38
2023-03-26T18:08:02.032Z,82.54
2023-03-26T18:10:53.360Z,82.66
2023-03-26T18:13:49.742Z,82.97
2023-03-26T18:16:24.567Z,83.05
2023-03-26T18:18:59.033Z,83.26
2023-03-26T18:21:34.277Z,83.33
2023-03-26T18:24:07.665Z,83.39
2023-03-26T18:26:42.780Z,83.44
2023-03-26T18:29:20.913Z,83.59
2023-03-26T18:31:57.723Z,83.70
2023-03-26T18:34:31.955Z,83.96
2023-03-26T18:37:15.832Z,83.96
2023-03-26T18:40:00.251Z,83.98
2023-03-26T18:42:34.040Z,83.92
2023-03-26T18:45:10.185Z,83.96
2023-03-26T18:47:41.707Z,84.21
2023-03-26T18:50:23.999Z,84.11
2023-03-26T18:52:57.250Z,84.29
2023-03-26T18:55:32.712Z,84.33
2023-03-26T18:58:23.394Z,84.42
2023-03-26T19:00:57.229Z,84.54
2023-03-26T19:03:32.260Z,84.64
2023-03-26T19:06:10.118Z,84.68
2023-03-26T19:08:43.790Z,84.88
2023-03-26T19:11:18.458Z,84.80
2023-03-26T19:14:03.315Z,84.82
2023-03-26T19:16:37.639Z,84.95
2023-03-26T19:19:10.689Z,84.80
2023-03-26T19:21:42.277Z,84.82
2023-03-26T19:24:16.393Z,84.87
2023-03-26T19:26:48.276Z,84.92
2023-03-26T19:29:24.501Z,84.97
2023-03-26T19:32:02.519Z,85.10
2023-03-26T19:34:40.649Z,84.94
2023-03-26T19:37:23.958Z,85.06
2023-03-26T19:39:56.322Z,85.03
2023-03-26T19:42:43.031Z,84.98
2023-03-26T19:45:20.421Z,84.82
2023-03-26T19:48:03.642Z,84.75
2023-03-26T19:50:46.019Z,84.91
2023-03-26T19:53:24.241Z,85.03
2023-03-26T19:56:00.789Z,85.03
2023-03-26T19:58:32.124Z,85.10
2023-03-26T20:01:03.450Z,85.11
2023-03-26T20:03:41.714Z,85.16
2023-03-26T20:06:15.847Z,85.19
2023-03-26T20:08:50.537Z,85.07
2023-03-26T20:11:24.843Z,85.06
2023-03-26T20:13:59.035Z,85.20
2023-03-26T20:16:30.013Z,85.13
2023-03-26T20:19:04.735Z,85.24
2023-03-26T20:21:38.107Z,85.22
2023-03-26T20:24:15.014Z,85.35
2023-03-26T20:26:47.518Z,85.26
2023-03-26T20:29:20.353Z,85.28
2023-03-26T20:31:51.443Z,85.28
2023-03-26T20:34:21.933Z,85.39
2023-03-26T20:36:56.157Z,85.30
2023-03-26T20:39:28.194Z,85.14
2023-03-26T20:41:59.370Z,85.21
2023-03-26T20:44:31.092Z,85.25
2023-03-26T20:47:02.447Z,85.31
2023-03-26T20:49:33.798Z,85.44
2023-03-26T20:52:05.454Z,85.47
2023-03-26T20:54:36.893Z,85.52
2023-03-26T20:57:08.299Z,85.56
2023-03-26T20:59:39.885Z,85.49
2023-03-26T21:02:13.283Z,85.61
2023-03-26T21:04:47.421Z,85.60
2023-03-26T21:07:19.825Z,85.71
2023-03-26T21:09:52.253Z,85.85
2023-03-26T21:12:32.007Z,85.90
2023-03-26T21:15:10.280Z,85.97
2023-03-26T21:17:45.866Z,86.00
2023-03-26T21:20:19.521Z,86.09
2023-03-26T21:22:56.472Z,86.03
2023-03-26T21:25:37.074Z,85.83
2023-03-26T21:28:18.074Z,85.66
2023-03-26T21:30:51.085Z,85.50
2023-03-26T21:33:22.366Z,85.48
2023-03-26T21:35:56.906Z,85.55
2023-03-26T21:38:32.381Z,85.66
2023-03-26T21:41:05.109Z,85.65
2023-03-26T21:43:36.534Z,85.63
2023-03-26T21:46:09.196Z,85.68
2023-03-26T21:48:41.782Z,85.65
2023-03-26T21:51:19.373Z,85.69
2023-03-26T21:53:51.407Z,85.59
2023-03-26T21:56:35.950Z,85.61
2023-03-26T21:59:13.718Z,85.56
2023-03-26T22:01:53.040Z,85.73
2023-03-26T22:04:30.123Z,85.78
2023-03-26T22:07:06.790Z,85.75
2023-03-26T22:09:38.869Z,85.74
2023-03-26T22:12:10.569Z,85.76
2023-03-26T22:14:41.944Z,85.67
2023-03-26T22:17:13.130Z,85.63
2023-03-26T22:19:44.604Z,85.55
2023-03-26T22:22:16.170Z,85.64
2023-03-26T22:24:47.271Z,85.72
2023-03-26T22:27:18.552Z,85.58
2023-03-26T22:29:49.605Z,85.55
2023-03-26T22:32:21.291Z,85.51
2023-03-26T22:34:52.126Z,85.42
2023-03-26T22:37:23.850Z,85.68
2023-03-26T22:39:54.958Z,85.73
2023-03-26T22:42:26.100Z,85.81
2023-03-26T22:44:57.566Z,85.78
2023-03-26T22:47:30.698Z,85.81
2023-03-26T22:50:07.410Z,85.56
2023-03-26T22:52:40.700Z,85.47
2023-03-26T22:55:13.072Z,85.44
2023-03-26T22:57:44.344Z,85.53
2023-03-26T23:00:19.574Z,85.53
2023-03-26T23:02:50.963Z,85.45
2023-03-26T23:05:20.840Z,85.41
2023-03-26T23:07:52.274Z,85.43
2023-03-26T23:10:24.246Z,85.35
2023-03-26T23:12:56.266Z,85.34
2023-03-26T23:15:27.349Z,85.26
2023-03-26T23:17:58.805Z,85.51
2023-03-26T23:20:30.950Z,85.66
2023-03-26T23:23:02.253Z,85.73
2023-03-26T23:25:33.528Z,85.78
2023-03-26T23:28:03.625Z,85.95
2023-03-26T23:30:35.772Z,85.95
2023-03-26T23:33:06.948Z,85.89
2023-03-26T23:35:38.012Z,86.26
2023-03-26T23:38:12.999Z,86.43
2023-03-26T23:40:45.918Z,86.59
2023-03-26T23:43:29.281Z,86.54
2023-03-26T23:46:00.732Z,86.56
2023-03-26T23:48:32.933Z,86.35
2023-03-26T23:51:04.652Z,86.20
2023-03-26T23:53:36.125Z,86.07
2023-03-26T23:56:08.563Z,85.88
2023-03-26T23:58:39.744Z,85.64
